sensor_id;sensor_type;location;lat;lon;timestamp;P1;durP1;ratioP1;P2;durP2;ratioP2
44746;SDS011;30472;49.490;10.972;2023-04-16T00:02:13;11.23;;;10.23;;
44746;SDS011;30472;49.490;10.972;2023-04-16T00:04:39;10.60;;;9.57;;
44746;SDS011;30472;49.490;10.972;2023-04-16T00:07:05;10.13;;;9.10;;
44746;SDS011;30472;49.490;10.972;2023-04-16T00:09:31;10.90;;;9.90;;
44746;SDS011;30472;49.490;10.972;2023-04-16T00:11:56;11.23;;;10.07;;
44746;SDS011;30472;49.490;10.972;2023-04-16T00:14:22;11.07;;;10.07;;
44746;SDS011;30472;49.490;10.972;2023-04-16T00:16:48;10.50;;;9.40;;
44746;SDS011;30472;49.490;10.972;2023-04-16T00:19:13;10.50;;;9.53;;
44746;SDS011;30472;49.490;10.972;2023-04-16T00:21:39;11.47;;;10.37;;
44746;SDS011;30472;49.490;10.972;2023-04-16T00:24:04;11.43;;;10.43;;
44746;SDS011;30472;49.490;10.972;2023-04-16T00:26:30;11.37;;;10.30;;
44746;SDS011;30472;49.490;10.972;2023-04-16T00:28:56;11.00;;;10.00;;
44746;SDS011;30472;49.490;10.972;2023-04-16T00:31:25;10.83;;;9.73;;
44746;SDS011;30472;49.490;10.972;2023-04-16T00:33:52;9.83;;;8.93;;
44746;SDS011;30472;49.490;10.972;2023-04-16T00:36:17;10.70;;;9.60;;
44746;SDS011;30472;49.490;10.972;2023-04-16T00:38:43;10.37;;;9.37;;
44746;SDS011;30472;49.490;10.972;2023-04-16T00:41:08;10.97;;;9.80;;
44746;SDS011;30472;49.490;10.972;2023-04-16T00:43:34;11.53;;;10.47;;
44746;SDS011;30472;49.490;10.972;2023-04-16T00:46:00;10.63;;;9.63;;
44746;SDS011;30472;49.490;10.972;2023-04-16T00:48:29;9.93;;;9.03;;
44746;SDS011;30472;49.490;10.972;2023-04-16T00:50:57;11.43;;;10.33;;
44746;SDS011;30472;49.490;10.972;2023-04-16T00:53:24;11.30;;;9.90;;
44746;SDS011;30472;49.490;10.972;2023-04-16T00:55:50;10.37;;;9.37;;
44746;SDS011;30472;49.490;10.972;2023-04-16T00:58:16;11.10;;;9.97;;
44746;SDS011;30472;49.490;10.972;2023-04-16T01:00:42;11.27;;;10.13;;
44746;SDS011;30472;49.490;10.972;2023-04-16T01:03:07;11.27;;;10.17;;
44746;SDS011;30472;49.490;10.972;2023-04-16T01:05:34;11.37;;;10.20;;
44746;SDS011;30472;49.490;10.972;2023-04-16T01:08:01;12.10;;;10.90;;
44746;SDS011;30472;49.490;10.972;2023-04-16T01:10:26;11.73;;;10.60;;
44746;SDS011;30472;49.490;10.972;2023-04-16T01:12:52;12.30;;;10.77;;
44746;SDS011;30472;49.490;10.972;2023-04-16T01:15:17;11.03;;;10.00;;
44746;SDS011;30472;49.490;10.972;2023-04-16T01:17:46;11.20;;;9.80;;
44746;SDS011;30472;49.490;10.972;2023-04-16T01:20:12;12.17;;;10.07;;
44746;SDS011;30472;49.490;10.972;2023-04-16T01:22:37;11.17;;;9.93;;
44746;SDS011;30472;49.490;10.972;2023-04-16T01:25:03;11.33;;;10.13;;
44746;SDS011;30472;49.490;10.972;2023-04-16T01:27:29;11.87;;;10.73;;
44746;SDS011;30472;49.490;10.972;2023-04-16T01:29:55;11.53;;;10.43;;
44746;SDS011;30472;49.490;10.972;2023-04-16T01:32:20;10.87;;;9.70;;
44746;SDS011;30472;49.490;10.972;2023-04-16T01:34:46;12.40;;;11.17;;
44746;SDS011;30472;49.490;10.972;2023-04-16T01:37:12;11.20;;;10.10;;
44746;SDS011;30472;49.490;10.972;2023-04-16T01:39:37;11.43;;;10.23;;
44746;SDS011;30472;49.490;10.972;2023-04-16T01:42:03;11.10;;;10.03;;
44746;SDS011;30472;49.490;10.972;2023-04-16T01:44:28;11.27;;;10.07;;
44746;SDS011;30472;49.490;10.972;2023-04-16T01:46:55;13.07;;;10.37;;
44746;SDS011;30472;49.490;10.972;2023-04-16T01:49:21;10.77;;;9.67;;
44746;SDS011;30472;49.490;10.972;2023-04-16T01:51:47;12.07;;;10.27;;
44746;SDS011;30472;49.490;10.972;2023-04-16T01:54:13;10.20;;;9.03;;
44746;SDS011;30472;49.490;10.972;2023-04-16T01:56:38;11.60;;;9.93;;
44746;SDS011;30472;49.490;10.972;2023-04-16T01:59:04;11.57;;;10.37;;
44746;SDS011;30472;49.490;10.972;2023-04-16T02:01:29;12.20;;;10.90;;
44746;SDS011;30472;49.490;10.972;2023-04-16T02:03:55;10.73;;;9.63;;
44746;SDS011;30472;49.490;10.972;2023-04-16T02:06:21;10.60;;;9.57;;
44746;SDS011;30472;49.490;10.972;2023-04-16T02:08:47;10.17;;;9.13;;
44746;SDS011;30472;49.490;10.972;2023-04-16T02:11:13;11.70;;;10.00;;
44746;SDS011;30472;49.490;10.972;2023-04-16T02:13:38;11.27;;;9.83;;
44746;SDS011;30472;49.490;10.972;2023-04-16T02:16:04;10.87;;;9.77;;
44746;SDS011;30472;49.490;10.972;2023-04-16T02:18:30;9.50;;;8.53;;
44746;SDS011;30472;49.490;10.972;2023-04-16T02:20:56;13.60;;;10.87;;
44746;SDS011;30472;49.490;10.972;2023-04-16T02:23:23;10.37;;;9.37;;
44746;SDS011;30472;49.490;10.972;2023-04-16T02:25:49;10.60;;;9.53;;
44746;SDS011;30472;49.490;10.972;2023-04-16T02:28:15;10.53;;;9.43;;
44746;SDS011;30472;49.490;10.972;2023-04-16T02:30:41;10.53;;;9.50;;
44746;SDS011;30472;49.490;10.972;2023-04-16T02:33:08;10.60;;;9.50;;
44746;SDS011;30472;49.490;10.972;2023-04-16T02:35:35;9.73;;;8.73;;
44746;SDS011;30472;49.490;10.972;2023-04-16T02:38:02;10.00;;;9.00;;
44746;SDS011;30472;49.490;10.972;2023-04-16T02:40:29;10.50;;;9.40;;
44746;SDS011;30472;49.490;10.972;2023-04-16T02:42:55;11.73;;;9.50;;
44746;SDS011;30472;49.490;10.972;2023-04-16T02:45:21;10.77;;;9.30;;
44746;SDS011;30472;49.490;10.972;2023-04-16T02:47:47;10.53;;;9.43;;
44746;SDS011;30472;49.490;10.972;2023-04-16T02:50:14;11.00;;;9.90;;
44746;SDS011;30472;49.490;10.972;2023-04-16T02:52:40;10.40;;;9.33;;
44746;SDS011;30472;49.490;10.972;2023-04-16T02:55:06;10.50;;;9.50;;
44746;SDS011;30472;49.490;10.972;2023-04-16T02:57:32;9.83;;;8.93;;
44746;SDS011;30472;49.490;10.972;2023-04-16T02:59:57;10.80;;;9.80;;
44746;SDS011;30472;49.490;10.972;2023-04-16T03:02:23;10.53;;;9.53;;
44746;SDS011;30472;49.490;10.972;2023-04-16T03:04:49;10.90;;;9.80;;
44746;SDS011;30472;49.490;10.972;2023-04-16T03:07:14;11.30;;;9.00;;
44746;SDS011;30472;49.490;10.972;2023-04-16T03:09:42;11.10;;;10.10;;
44746;SDS011;30472;49.490;10.972;2023-04-16T03:12:08;10.87;;;9.83;;
44746;SDS011;30472;49.490;10.972;2023-04-16T03:14:34;10.77;;;9.67;;
44746;SDS011;30472;49.490;10.972;2023-04-16T03:17:00;11.73;;;9.30;;
44746;SDS011;30472;49.490;10.972;2023-04-16T03:19:25;10.70;;;8.60;;
44746;SDS011;30472;49.490;10.972;2023-04-16T03:21:51;10.03;;;9.03;;
44746;SDS011;30472;49.490;10.972;2023-04-16T03:24:17;10.93;;;9.87;;
44746;SDS011;30472;49.490;10.972;2023-04-16T03:26:42;10.00;;;9.00;;
44746;SDS011;30472;49.490;10.972;2023-04-16T03:29:08;10.67;;;9.57;;
44746;SDS011;30472;49.490;10.972;2023-04-16T03:31:33;10.30;;;9.30;;
44746;SDS011;30472;49.490;10.972;2023-04-16T03:33:59;12.97;;;10.23;;
44746;SDS011;30472;49.490;10.972;2023-04-16T03:36:25;10.23;;;9.23;;
44746;SDS011;30472;49.490;10.972;2023-04-16T03:38:53;9.70;;;8.80;;
44746;SDS011;30472;49.490;10.972;2023-04-16T03:41:19;10.17;;;9.07;;
44746;SDS011;30472;49.490;10.972;2023-04-16T03:43:45;10.13;;;9.13;;
44746;SDS011;30472;49.490;10.972;2023-04-16T03:46:10;11.07;;;10.00;;
44746;SDS011;30472;49.490;10.972;2023-04-16T03:48:36;11.13;;;10.03;;
44746;SDS011;30472;49.490;10.972;2023-04-16T03:51:01;11.63;;;10.00;;
44746;SDS011;30472;49.490;10.972;2023-04-16T03:53:27;9.87;;;8.97;;
44746;SDS011;30472;49.490;10.972;2023-04-16T03:55:53;10.80;;;9.70;;
44746;SDS011;30472;49.490;10.972;2023-04-16T03:58:18;10.13;;;9.13;;
44746;SDS011;30472;49.490;10.972;2023-04-16T04:00:45;13.10;;;10.27;;
44746;SDS011;30472;49.490;10.972;2023-04-16T04:03:10;10.90;;;9.80;;
44746;SDS011;30472;49.490;10.972;2023-04-16T04:05:38;9.83;;;8.90;;
44746;SDS011;30472;49.490;10.972;2023-04-16T04:08:05;11.57;;;10.37;;
44746;SDS011;30472;49.490;10.972;2023-04-16T04:10:32;10.53;;;9.47;;
44746;SDS011;30472;49.490;10.972;2023-04-16T04:12:58;12.00;;;9.60;;
44746;SDS011;30472;49.490;10.972;2023-04-16T04:15:23;11.33;;;9.77;;
44746;SDS011;30472;49.490;10.972;2023-04-16T04:17:49;11.33;;;9.47;;
44746;SDS011;30472;49.490;10.972;2023-04-16T04:20:15;10.73;;;9.63;;
44746;SDS011;30472;49.490;10.972;2023-04-16T04:22:40;11.60;;;10.40;;
44746;SDS011;30472;49.490;10.972;2023-04-16T04:25:07;11.97;;;10.77;;
44746;SDS011;30472;49.490;10.972;2023-04-16T04:27:34;10.30;;;9.20;;
44746;SDS011;30472;49.490;10.972;2023-04-16T04:29:59;10.37;;;9.37;;
44746;SDS011;30472;49.490;10.972;2023-04-16T04:32:25;11.03;;;9.57;;
44746;SDS011;30472;49.490;10.972;2023-04-16T04:34:51;11.53;;;10.13;;
44746;SDS011;30472;49.490;10.972;2023-04-16T04:37:17;11.63;;;10.47;;
44746;SDS011;30472;49.490;10.972;2023-04-16T04:39:42;11.10;;;9.70;;
44746;SDS011;30472;49.490;10.972;2023-04-16T04:42:08;12.07;;;10.00;;
44746;SDS011;30472;49.490;10.972;2023-04-16T04:44:33;11.27;;;10.17;;
44746;SDS011;30472;49.490;10.972;2023-04-16T04:46:59;10.83;;;9.73;;
44746;SDS011;30472;49.490;10.972;2023-04-16T04:49:25;10.63;;;9.60;;
44746;SDS011;30472;49.490;10.972;2023-04-16T04:51:50;10.93;;;9.33;;
44746;SDS011;30472;49.490;10.972;2023-04-16T04:54:16;9.97;;;8.47;;
44746;SDS011;30472;49.490;10.972;2023-04-16T04:56:41;11.50;;;9.83;;
44746;SDS011;30472;49.490;10.972;2023-04-16T04:59:09;10.43;;;9.30;;
44746;SDS011;30472;49.490;10.972;2023-04-16T05:01:35;9.83;;;8.83;;
44746;SDS011;30472;49.490;10.972;2023-04-16T05:04:01;9.97;;;9.00;;
44746;SDS011;30472;49.490;10.972;2023-04-16T05:06:27;10.40;;;9.17;;
44746;SDS011;30472;49.490;10.972;2023-04-16T05:08:53;10.13;;;8.57;;
44746;SDS011;30472;49.490;10.972;2023-04-16T05:11:18;9.73;;;8.80;;
44746;SDS011;30472;49.490;10.972;2023-04-16T05:13:44;9.83;;;8.87;;
44746;SDS011;30472;49.490;10.972;2023-04-16T05:16:10;10.37;;;9.27;;
44746;SDS011;30472;49.490;10.972;2023-04-16T05:18:35;10.10;;;9.07;;
44746;SDS011;30472;49.490;10.972;2023-04-16T05:21:01;9.57;;;8.67;;
44746;SDS011;30472;49.490;10.972;2023-04-16T05:23:26;10.47;;;9.23;;
44746;SDS011;30472;49.490;10.972;2023-04-16T05:25:52;10.53;;;9.27;;
44746;SDS011;30472;49.490;10.972;2023-04-16T05:28:17;10.37;;;9.10;;
44746;SDS011;30472;49.490;10.972;2023-04-16T05:30:43;8.40;;;7.60;;
44746;SDS011;30472;49.490;10.972;2023-04-16T05:33:08;9.53;;;8.63;;
44746;SDS011;30472;49.490;10.972;2023-04-16T05:35:34;8.93;;;8.03;;
44746;SDS011;30472;49.490;10.972;2023-04-16T05:37:59;7.93;;;7.23;;
44746;SDS011;30472;49.490;10.972;2023-04-16T05:40:25;10.30;;;9.00;;
44746;SDS011;30472;49.490;10.972;2023-04-16T05:42:51;9.20;;;8.30;;
44746;SDS011;30472;49.490;10.972;2023-04-16T05:45:16;8.60;;;7.70;;
44746;SDS011;30472;49.490;10.972;2023-04-16T05:47:42;9.07;;;8.27;;
44746;SDS011;30472;49.490;10.972;2023-04-16T05:50:08;8.70;;;7.90;;
44746;SDS011;30472;49.490;10.972;2023-04-16T05:52:34;8.53;;;7.73;;
44746;SDS011;30472;49.490;10.972;2023-04-16T05:55:00;9.20;;;8.37;;
44746;SDS011;30472;49.490;10.972;2023-04-16T05:57:29;9.53;;;8.40;;
44746;SDS011;30472;49.490;10.972;2023-04-16T05:59:54;8.47;;;7.67;;
44746;SDS011;30472;49.490;10.972;2023-04-16T06:02:20;9.80;;;8.80;;
44746;SDS011;30472;49.490;10.972;2023-04-16T06:04:45;9.40;;;8.50;;
44746;SDS011;30472;49.490;10.972;2023-04-16T06:07:11;8.40;;;7.60;;
44746;SDS011;30472;49.490;10.972;2023-04-16T06:09:37;9.87;;;8.87;;
44746;SDS011;30472;49.490;10.972;2023-04-16T06:12:02;9.40;;;8.10;;
44746;SDS011;30472;49.490;10.972;2023-04-16T06:14:28;8.57;;;7.70;;
44746;SDS011;30472;49.490;10.972;2023-04-16T06:16:53;11.70;;;7.90;;
44746;SDS011;30472;49.490;10.972;2023-04-16T06:19:20;8.17;;;7.37;;
44746;SDS011;30472;49.490;10.972;2023-04-16T06:21:45;7.70;;;7.00;;
44746;SDS011;30472;49.490;10.972;2023-04-16T06:24:11;6.57;;;5.97;;
44746;SDS011;30472;49.490;10.972;2023-04-16T06:26:37;5.80;;;5.30;;
44746;SDS011;30472;49.490;10.972;2023-04-16T06:29:03;6.13;;;5.53;;
44746;SDS011;30472;49.490;10.972;2023-04-16T06:31:29;6.77;;;5.10;;
44746;SDS011;30472;49.490;10.972;2023-04-16T06:33:55;5.60;;;5.10;;
44746;SDS011;30472;49.490;10.972;2023-04-16T06:36:21;6.30;;;5.70;;
44746;SDS011;30472;49.490;10.972;2023-04-16T06:38:46;9.40;;;6.00;;
44746;SDS011;30472;49.490;10.972;2023-04-16T06:41:12;6.33;;;5.73;;
44746;SDS011;30472;49.490;10.972;2023-04-16T06:43:38;8.03;;;7.23;;
44746;SDS011;30472;49.490;10.972;2023-04-16T06:46:04;7.03;;;6.33;;
44746;SDS011;30472;49.490;10.972;2023-04-16T06:48:30;6.77;;;6.00;;
44746;SDS011;30472;49.490;10.972;2023-04-16T06:50:55;9.50;;;7.03;;
44746;SDS011;30472;49.490;10.972;2023-04-16T06:53:22;7.67;;;6.53;;
44746;SDS011;30472;49.490;10.972;2023-04-16T06:55:47;6.27;;;5.67;;
44746;SDS011;30472;49.490;10.972;2023-04-16T06:58:13;6.47;;;5.83;;
44746;SDS011;30472;49.490;10.972;2023-04-16T07:00:38;6.03;;;5.43;;
44746;SDS011;30472;49.490;10.972;2023-04-16T07:03:04;7.20;;;6.40;;
44746;SDS011;30472;49.490;10.972;2023-04-16T07:05:30;6.47;;;5.87;;
44746;SDS011;30472;49.490;10.972;2023-04-16T07:07:55;7.57;;;6.77;;
44746;SDS011;30472;49.490;10.972;2023-04-16T07:10:21;6.83;;;6.20;;
44746;SDS011;30472;49.490;10.972;2023-04-16T07:12:47;7.70;;;6.93;;
44746;SDS011;30472;49.490;10.972;2023-04-16T07:15:13;8.00;;;7.20;;
44746;SDS011;30472;49.490;10.972;2023-04-16T07:17:38;7.63;;;6.93;;
44746;SDS011;30472;49.490;10.972;2023-04-16T07:20:04;7.17;;;6.47;;
44746;SDS011;30472;49.490;10.972;2023-04-16T07:22:31;6.57;;;5.97;;
44746;SDS011;30472;49.490;10.972;2023-04-16T07:24:59;6.67;;;6.10;;
44746;SDS011;30472;49.490;10.972;2023-04-16T07:27:25;6.57;;;5.97;;
44746;SDS011;30472;49.490;10.972;2023-04-16T07:29:51;6.77;;;6.17;;
44746;SDS011;30472;49.490;10.972;2023-04-16T07:32:16;7.57;;;6.87;;
44746;SDS011;30472;49.490;10.972;2023-04-16T07:34:42;6.50;;;5.90;;
44746;SDS011;30472;49.490;10.972;2023-04-16T07:37:08;7.00;;;6.30;;
44746;SDS011;30472;49.490;10.972;2023-04-16T07:39:33;6.87;;;6.17;;
44746;SDS011;30472;49.490;10.972;2023-04-16T07:41:59;6.90;;;6.17;;
44746;SDS011;30472;49.490;10.972;2023-04-16T07:44:25;5.73;;;5.23;;
44746;SDS011;30472;49.490;10.972;2023-04-16T07:46:51;5.87;;;5.37;;
44746;SDS011;30472;49.490;10.972;2023-04-16T07:49:17;4.97;;;4.57;;
44746;SDS011;30472;49.490;10.972;2023-04-16T07:51:42;5.00;;;4.60;;
44746;SDS011;30472;49.490;10.972;2023-04-16T07:54:08;5.13;;;4.63;;
44746;SDS011;30472;49.490;10.972;2023-04-16T07:56:34;4.60;;;4.20;;
44746;SDS011;30472;49.490;10.972;2023-04-16T07:59:00;4.70;;;4.30;;
44746;SDS011;30472;49.490;10.972;2023-04-16T08:01:25;4.33;;;4.03;;
44746;SDS011;30472;49.490;10.972;2023-04-16T08:03:52;4.50;;;4.10;;
44746;SDS011;30472;49.490;10.972;2023-04-16T08:06:18;4.43;;;4.03;;
44746;SDS011;30472;49.490;10.972;2023-04-16T08:08:45;3.50;;;3.20;;
44746;SDS011;30472;49.490;10.972;2023-04-16T08:11:11;3.83;;;3.53;;
44746;SDS011;30472;49.490;10.972;2023-04-16T08:13:36;3.90;;;3.60;;
44746;SDS011;30472;49.490;10.972;2023-04-16T08:16:02;4.17;;;3.87;;
44746;SDS011;30472;49.490;10.972;2023-04-16T08:18:29;4.30;;;3.90;;
44746;SDS011;30472;49.490;10.972;2023-04-16T08:20:54;4.33;;;3.93;;
44746;SDS011;30472;49.490;10.972;2023-04-16T08:23:20;3.93;;;3.63;;
44746;SDS011;30472;49.490;10.972;2023-04-16T08:25:46;4.53;;;4.07;;
44746;SDS011;30472;49.490;10.972;2023-04-16T08:28:12;4.37;;;3.97;;
44746;SDS011;30472;49.490;10.972;2023-04-16T08:30:37;4.30;;;3.63;;
44746;SDS011;30472;49.490;10.972;2023-04-16T08:33:04;4.23;;;3.83;;
44746;SDS011;30472;49.490;10.972;2023-04-16T08:35:31;4.00;;;3.60;;
44746;SDS011;30472;49.490;10.972;2023-04-16T08:37:56;3.63;;;3.33;;
44746;SDS011;30472;49.490;10.972;2023-04-16T08:40:24;4.70;;;4.00;;
44746;SDS011;30472;49.490;10.972;2023-04-16T08:42:52;4.37;;;3.97;;
44746;SDS011;30472;49.490;10.972;2023-04-16T08:45:19;4.50;;;4.10;;
44746;SDS011;30472;49.490;10.972;2023-04-16T08:47:46;4.37;;;3.90;;
44746;SDS011;30472;49.490;10.972;2023-04-16T08:50:13;4.40;;;4.00;;
44746;SDS011;30472;49.490;10.972;2023-04-16T08:52:49;3.67;;;3.37;;
44746;SDS011;30472;49.490;10.972;2023-04-16T08:58:13;3.47;;;2.97;;
44746;SDS011;30472;49.490;10.972;2023-04-16T09:00:39;2.87;;;2.67;;
44746;SDS011;30472;49.490;10.972;2023-04-16T09:03:06;2.20;;;2.10;;
44746;SDS011;30472;49.490;10.972;2023-04-16T09:05:33;2.30;;;2.10;;
44746;SDS011;30472;49.490;10.972;2023-04-16T09:07:59;2.50;;;2.30;;
44746;SDS011;30472;49.490;10.972;2023-04-16T09:10:25;2.60;;;2.40;;
44746;SDS011;30472;49.490;10.972;2023-04-16T09:12:53;2.43;;;2.23;;
44746;SDS011;30472;49.490;10.972;2023-04-16T09:15:20;5.00;;;2.40;;
44746;SDS011;30472;49.490;10.972;2023-04-16T09:17:46;3.13;;;2.30;;
44746;SDS011;30472;49.490;10.972;2023-04-16T09:20:14;2.00;;;1.90;;
44746;SDS011;30472;49.490;10.972;2023-04-16T09:22:40;2.50;;;2.07;;
44746;SDS011;30472;49.490;10.972;2023-04-16T09:25:07;2.07;;;1.97;;
44746;SDS011;30472;49.490;10.972;2023-04-16T09:27:33;2.40;;;2.20;;
44746;SDS011;30472;49.490;10.972;2023-04-16T09:32:50;2.40;;;2.20;;
44746;SDS011;30472;49.490;10.972;2023-04-16T09:35:17;1.80;;;1.70;;
44746;SDS011;30472;49.490;10.972;2023-04-16T09:38:01;1.53;;;1.43;;
44746;SDS011;30472;49.490;10.972;2023-04-16T09:40:27;1.70;;;1.60;;
44746;SDS011;30472;49.490;10.972;2023-04-16T09:42:58;1.57;;;1.47;;
44746;SDS011;30472;49.490;10.972;2023-04-16T09:45:24;1.60;;;1.50;;
44746;SDS011;30472;49.490;10.972;2023-04-16T09:47:55;1.60;;;1.50;;
44746;SDS011;30472;49.490;10.972;2023-04-16T09:50:27;1.50;;;1.40;;
44746;SDS011;30472;49.490;10.972;2023-04-16T09:52:53;1.80;;;1.70;;
44746;SDS011;30472;49.490;10.972;2023-04-16T09:55:22;1.70;;;1.60;;
44746;SDS011;30472;49.490;10.972;2023-04-16T09:57:57;1.70;;;1.60;;
44746;SDS011;30472;49.490;10.972;2023-04-16T10:00:24;1.53;;;1.43;;
44746;SDS011;30472;49.490;10.972;2023-04-16T10:02:52;2.00;;;1.80;;
44746;SDS011;30472;49.490;10.972;2023-04-16T10:05:30;1.97;;;1.43;;
44746;SDS011;30472;49.490;10.972;2023-04-16T10:07:58;1.90;;;1.80;;
44746;SDS011;30472;49.490;10.972;2023-04-16T10:10:26;1.77;;;1.50;;
44746;SDS011;30472;49.490;10.972;2023-04-16T10:12:52;1.63;;;1.53;;
44746;SDS011;30472;49.490;10.972;2023-04-16T10:15:19;1.73;;;1.63;;
44746;SDS011;30472;49.490;10.972;2023-04-16T10:17:46;1.73;;;1.63;;
44746;SDS011;30472;49.490;10.972;2023-04-16T10:20:12;1.83;;;1.53;;
44746;SDS011;30472;49.490;10.972;2023-04-16T10:22:39;1.63;;;1.53;;
44746;SDS011;30472;49.490;10.972;2023-04-16T10:25:06;2.07;;;1.67;;
44746;SDS011;30472;49.490;10.972;2023-04-16T10:27:33;1.47;;;1.20;;
44746;SDS011;30472;49.490;10.972;2023-04-16T10:29:59;1.53;;;1.43;;
44746;SDS011;30472;49.490;10.972;2023-04-16T10:32:25;1.10;;;1.00;;
44746;SDS011;30472;49.490;10.972;2023-04-16T10:34:52;1.37;;;1.20;;
44746;SDS011;30472;49.490;10.972;2023-04-16T10:37:27;1.33;;;1.23;;
44746;SDS011;30472;49.490;10.972;2023-04-16T10:39:55;1.70;;;1.17;;
44746;SDS011;30472;49.490;10.972;2023-04-16T10:42:21;1.13;;;1.03;;
44746;SDS011;30472;49.490;10.972;2023-04-16T10:44:47;1.30;;;1.20;;
44746;SDS011;30472;49.490;10.972;2023-04-16T10:47:12;1.00;;;1.00;;
44746;SDS011;30472;49.490;10.972;2023-04-16T10:49:39;1.73;;;1.40;;
44746;SDS011;30472;49.490;10.972;2023-04-16T10:52:10;1.40;;;1.30;;
44746;SDS011;30472;49.490;10.972;2023-04-16T10:54:37;1.60;;;1.50;;
44746;SDS011;30472;49.490;10.972;2023-04-16T10:57:05;1.47;;;1.20;;
44746;SDS011;30472;49.490;10.972;2023-04-16T10:59:33;1.30;;;1.20;;
44746;SDS011;30472;49.490;10.972;2023-04-16T11:02:00;1.30;;;1.20;;
44746;SDS011;30472;49.490;10.972;2023-04-16T11:04:37;1.00;;;1.00;;
44746;SDS011;30472;49.490;10.972;2023-04-16T11:12:36;1.03;;;1.00;;
44746;SDS011;30472;49.490;10.972;2023-04-16T11:20:05;1.37;;;1.17;;
44746;SDS011;30472;49.490;10.972;2023-04-16T11:22:36;1.53;;;1.30;;
44746;SDS011;30472;49.490;10.972;2023-04-16T11:25:03;1.27;;;1.17;;
44746;SDS011;30472;49.490;10.972;2023-04-16T11:27:29;2.23;;;1.20;;
44746;SDS011;30472;49.490;10.972;2023-04-16T11:29:55;1.23;;;1.10;;
44746;SDS011;30472;49.490;10.972;2023-04-16T11:32:22;1.20;;;1.10;;
44746;SDS011;30472;49.490;10.972;2023-04-16T11:34:48;1.37;;;1.10;;
44746;SDS011;30472;49.490;10.972;2023-04-16T11:37:14;1.67;;;1.57;;
44746;SDS011;30472;49.490;10.972;2023-04-16T11:39:49;1.10;;;1.00;;
44746;SDS011;30472;49.490;10.972;2023-04-16T11:42:19;1.33;;;1.10;;
44746;SDS011;30472;49.490;10.972;2023-04-16T11:44:54;1.40;;;1.30;;
44746;SDS011;30472;49.490;10.972;2023-04-16T11:47:21;1.17;;;1.03;;
44746;SDS011;30472;49.490;10.972;2023-04-16T11:49:50;1.10;;;1.10;;
44746;SDS011;30472;49.490;10.972;2023-04-16T11:52:28;1.30;;;1.10;;
44746;SDS011;30472;49.490;10.972;2023-04-16T11:54:58;1.30;;;1.20;;
44746;SDS011;30472;49.490;10.972;2023-04-16T11:57:25;1.50;;;1.40;;
44746;SDS011;30472;49.490;10.972;2023-04-16T11:59:58;1.20;;;1.10;;
44746;SDS011;30472;49.490;10.972;2023-04-16T12:05:26;1.33;;;1.23;;
44746;SDS011;30472;49.490;10.972;2023-04-16T12:07:55;2.50;;;1.30;;
44746;SDS011;30472;49.490;10.972;2023-04-16T12:10:26;1.90;;;1.60;;
44746;SDS011;30472;49.490;10.972;2023-04-16T12:12:52;1.50;;;1.40;;
44746;SDS011;30472;49.490;10.972;2023-04-16T12:15:18;1.90;;;1.40;;
44746;SDS011;30472;49.490;10.972;2023-04-16T12:17:43;1.87;;;1.50;;
44746;SDS011;30472;49.490;10.972;2023-04-16T12:20:13;1.70;;;1.60;;
44746;SDS011;30472;49.490;10.972;2023-04-16T12:22:42;1.20;;;1.17;;
44746;SDS011;30472;49.490;10.972;2023-04-16T12:25:10;2.53;;;1.83;;
44746;SDS011;30472;49.490;10.972;2023-04-16T12:27:41;1.90;;;1.80;;
44746;SDS011;30472;49.490;10.972;2023-04-16T12:30:09;2.17;;;1.97;;
44746;SDS011;30472;49.490;10.972;2023-04-16T12:32:35;2.13;;;2.03;;
44746;SDS011;30472;49.490;10.972;2023-04-16T12:35:01;2.60;;;2.00;;
44746;SDS011;30472;49.490;10.972;2023-04-16T12:37:26;3.40;;;1.90;;
44746;SDS011;30472;49.490;10.972;2023-04-16T12:39:52;3.10;;;2.30;;
44746;SDS011;30472;49.490;10.972;2023-04-16T12:42:18;2.20;;;1.97;;
44746;SDS011;30472;49.490;10.972;2023-04-16T12:44:44;1.77;;;1.67;;
44746;SDS011;30472;49.490;10.972;2023-04-16T12:47:10;3.57;;;1.40;;
44746;SDS011;30472;49.490;10.972;2023-04-16T12:49:36;1.60;;;1.50;;
44746;SDS011;30472;49.490;10.972;2023-04-16T12:52:01;1.80;;;1.60;;
44746;SDS011;30472;49.490;10.972;2023-04-16T12:54:27;1.67;;;1.57;;
44746;SDS011;30472;49.490;10.972;2023-04-16T12:56:55;1.70;;;1.60;;
44746;SDS011;30472;49.490;10.972;2023-04-16T12:59:21;1.97;;;1.43;;
44746;SDS011;30472;49.490;10.972;2023-04-16T13:01:47;1.70;;;1.60;;
44746;SDS011;30472;49.490;10.972;2023-04-16T13:04:12;1.63;;;1.53;;
44746;SDS011;30472;49.490;10.972;2023-04-16T13:06:38;1.80;;;1.63;;
44746;SDS011;30472;49.490;10.972;2023-04-16T13:09:04;2.53;;;1.53;;
44746;SDS011;30472;49.490;10.972;2023-04-16T13:11:30;1.43;;;1.33;;
44746;SDS011;30472;49.490;10.972;2023-04-16T13:13:56;1.97;;;1.20;;
44746;SDS011;30472;49.490;10.972;2023-04-16T13:16:22;1.20;;;1.00;;
44746;SDS011;30472;49.490;10.972;2023-04-16T13:18:48;2.47;;;1.20;;
44746;SDS011;30472;49.490;10.972;2023-04-16T13:21:13;2.77;;;1.27;;
44746;SDS011;30472;49.490;10.972;2023-04-16T13:23:39;0.90;;;0.90;;
44746;SDS011;30472;49.490;10.972;2023-04-16T13:26:05;1.00;;;0.90;;
44746;SDS011;30472;49.490;10.972;2023-04-16T13:28:30;1.77;;;1.30;;
44746;SDS011;30472;49.490;10.972;2023-04-16T13:30:56;1.93;;;1.20;;
44746;SDS011;30472;49.490;10.972;2023-04-16T13:33:23;1.90;;;1.07;;
44746;SDS011;30472;49.490;10.972;2023-04-16T13:35:49;1.30;;;1.20;;
44746;SDS011;30472;49.490;10.972;2023-04-16T13:38:15;1.27;;;1.17;;
44746;SDS011;30472;49.490;10.972;2023-04-16T13:40:41;1.00;;;1.00;;
44746;SDS011;30472;49.490;10.972;2023-04-16T13:43:07;0.80;;;0.80;;
44746;SDS011;30472;49.490;10.972;2023-04-16T13:45:32;0.93;;;0.90;;
44746;SDS011;30472;49.490;10.972;2023-04-16T13:47:58;1.20;;;1.10;;
44746;SDS011;30472;49.490;10.972;2023-04-16T13:50:24;1.13;;;1.10;;
44746;SDS011;30472;49.490;10.972;2023-04-16T13:52:49;1.30;;;1.20;;
44746;SDS011;30472;49.490;10.972;2023-04-16T13:55:15;1.43;;;1.30;;
44746;SDS011;30472;49.490;10.972;2023-04-16T13:57:45;2.07;;;1.87;;
44746;SDS011;30472;49.490;10.972;2023-04-16T14:00:11;2.13;;;1.93;;
44746;SDS011;30472;49.490;10.972;2023-04-16T14:02:38;1.80;;;1.60;;
44746;SDS011;30472;49.490;10.972;2023-04-16T14:05:07;2.80;;;2.00;;
44746;SDS011;30472;49.490;10.972;2023-04-16T14:07:33;2.33;;;1.60;;
44746;SDS011;30472;49.490;10.972;2023-04-16T14:09:59;1.60;;;1.50;;
44746;SDS011;30472;49.490;10.972;2023-04-16T14:12:25;2.40;;;1.83;;
44746;SDS011;30472;49.490;10.972;2023-04-16T14:14:51;1.63;;;1.47;;
44746;SDS011;30472;49.490;10.972;2023-04-16T14:17:17;1.80;;;1.70;;
44746;SDS011;30472;49.490;10.972;2023-04-16T14:19:42;2.60;;;1.67;;
44746;SDS011;30472;49.490;10.972;2023-04-16T14:22:08;2.53;;;1.70;;
44746;SDS011;30472;49.490;10.972;2023-04-16T14:24:34;1.90;;;1.73;;
44746;SDS011;30472;49.490;10.972;2023-04-16T14:27:00;2.17;;;1.97;;
44746;SDS011;30472;49.490;10.972;2023-04-16T14:29:26;1.83;;;1.73;;
44746;SDS011;30472;49.490;10.972;2023-04-16T14:31:52;2.30;;;1.83;;
44746;SDS011;30472;49.490;10.972;2023-04-16T14:34:17;2.10;;;1.67;;
44746;SDS011;30472;49.490;10.972;2023-04-16T14:36:43;1.93;;;1.73;;
44746;SDS011;30472;49.490;10.972;2023-04-16T14:39:09;1.87;;;1.77;;
44746;SDS011;30472;49.490;10.972;2023-04-16T14:41:35;2.87;;;1.73;;
44746;SDS011;30472;49.490;10.972;2023-04-16T14:44:00;1.90;;;1.80;;